FZAAHUEN

Guest
Details From FZAA - Ndjili Intl
To HUEN - Entebbe Intl
Flight Number -
Tags Generated
Created
Modified
Stats Distance 1,055 nm / 1,954 km
Max Altitude 0 ft / 0 m
Waypoints 3
Social Downloads 0
Likes 0
Share VATSIM

Download

Looking for another format? Having issues loading an existing format? Contact us
Advertisement - Login to hide

Notes

Generated

Route

FZAA NN HUEN

ID Type Via Altitude Latitude Longitude Leg Dist Tot Dist Heading (true) Name
O FZAA APT - 0 ft / 0 m -4.39717˚ 15.42672˚ - 0 nm - -
NN VOR - 0 ft / 0 m 0.05300˚ 32.43800˚ 1055 nm 1055 nm 76° / 75° ENTEBBE VOR-DME
O HUEN APT - 0 ft / 0 m 0.05123˚ 32.43912˚ 0 nm 1055 nm 148° / 148° -

Altitude Profile

Advertisement - Login to hide

Weather


0- 5 10 15 20 25 30 35+ Temperature / ° C

Clouds and Precipitation
Forecast for 2017-12-17 06:00 UTC. Updated an hour ago

Ground ~20,000 ft ~40,000 ft Winds

FZAA

Details ICAO FZAA (FIH)
Name NDJILI INTL
Region Democratic Republic of the Congo
Timezone Africa/Kinshasa (UTC+1.0)
Stats Elevation 1,027 ft / 313 m (AMSL)
Location -4.385750° 15.444570°
Runways 1
Magnetic Variation 1.332° W

METAR

Not found

TAF

TAF FZAA 162300Z 1700/1806 20004KT 7000 SCT016 BECMG 1710/1712 32010KT SCT024 FEW030CB TEMPO 1716/1721 TS BECMG 1723/1801 18006KT FEW016

Decode

Departure Runways

ID Width Length Bearing (true) Bearing (mag) Surface Threshold Offset Overrun Length
06 197 ft / 60 m 15,430 ft / 4,703 m 57.32° 58.65° Concrete 0 ft / 0 m 0 ft / 0 m
24 197 ft / 60 m 15,430 ft / 4,703 m 237.32° 238.65° Concrete 0 ft / 0 m 220 ft / 67 m

HUEN

Details ICAO HUEN (EBB)
Name ENTEBBE INTL
Region Uganda
Timezone Africa/Kampala (UTC+3.0)
Stats Elevation 3,782 ft / 1,153 m (AMSL)
Location 0.042386° 32.443504°
Runways 2
Magnetic Variation 1.527° E

METAR

Not found

TAF

TAF HUEN 162300Z 1700/1806 18009KT 9000 FEW020 FEW022CB TEMPO 1701/1706 VRB12KT 8000 TSRA SCT018 FEW020CB BKN110 BECMG 1707/1712 17010KT 9000 -TS FEW024 FEW026CB FM 171700 23008 9999 FEW022 FEW024CB SCT150 BECMG 1721/1724 34006KT FEW020 FEW022CB TEMPO 1801/1806 VRB12KT 8000 TSRA BKN018 FEW020CB BKN100

Decode

Destination Runways

ID Width Length Bearing (true) Bearing (mag) Surface Threshold Offset Overrun Length
12 150 ft / 46 m 8,014 ft / 2,443 m 121.34° 119.81° Asphalt 0 ft / 0 m 0 ft / 0 m
17 150 ft / 46 m 12,073 ft / 3,680 m 171.06° 169.53° Asphalt 0 ft / 0 m 0 ft / 0 m
30 150 ft / 46 m 8,014 ft / 2,443 m 301.34° 299.81° Asphalt 0 ft / 0 m 0 ft / 0 m
35 150 ft / 46 m 12,073 ft / 3,680 m 351.06° 349.53° Asphalt 0 ft / 0 m 0 ft / 0 m

Approach Navaids

Runway Type Ident Frequency Range Bearing (true) Bearing (mag) Slope Elevation
17 Localiser IEL 110.70 MHz 18 nm / 33 km 171.62° 170.10° - 3,754 ft / 1,144 m (AMSL)
17 Glidescope IEL 110.70 MHz 10 nm / 19 km 171.06° 169.53° 3.00° 3,780 ft / 1,152 m (AMSL)
17 DME IEL 110.70 MHz 18 nm / 33 km - - - 3,780 ft / 1,152 m (AMSL)

Popular Alternatives